sensor_id;sensor_type;location;lat;lon;timestamp;temperature;humidity
83283;DHT22;73190;50.780;5.658;2024-02-04T00:02:24;11.00;94.40
83283;DHT22;73190;50.780;5.658;2024-02-04T00:04:52;11.10;94.20
83283;DHT22;73190;50.780;5.658;2024-02-04T00:07:20;11.10;94.00
83283;DHT22;73190;50.780;5.658;2024-02-04T00:09:48;11.30;93.60
83283;DHT22;73190;50.780;5.658;2024-02-04T00:12:15;11.10;94.00
83283;DHT22;73190;50.780;5.658;2024-02-04T00:14:43;11.10;94.00
83283;DHT22;73190;50.780;5.658;2024-02-04T00:17:10;11.00;94.30
83283;DHT22;73190;50.780;5.658;2024-02-04T00:19:39;10.80;94.70
83283;DHT22;73190;50.780;5.658;2024-02-04T00:22:08;11.00;94.40
83283;DHT22;73190;50.780;5.658;2024-02-04T00:24:36;11.00;94.60
83283;DHT22;73190;50.780;5.658;2024-02-04T00:27:03;10.90;94.40
83283;DHT22;73190;50.780;5.658;2024-02-04T00:29:31;10.80;94.80
83283;DHT22;73190;50.780;5.658;2024-02-04T00:32:01;10.80;94.80
83283;DHT22;73190;50.780;5.658;2024-02-04T00:34:29;10.90;94.50
83283;DHT22;73190;50.780;5.658;2024-02-04T00:36:57;10.90;94.50
83283;DHT22;73190;50.780;5.658;2024-02-04T00:39:24;11.10;94.20
83283;DHT22;73190;50.780;5.658;2024-02-04T00:41:52;11.10;94.00
83283;DHT22;73190;50.780;5.658;2024-02-04T00:44:19;11.00;94.30
83283;DHT22;73190;50.780;5.658;2024-02-04T00:46:47;11.10;94.30
83283;DHT22;73190;50.780;5.658;2024-02-04T00:49:14;11.10;94.20
83283;DHT22;73190;50.780;5.658;2024-02-04T00:51:42;10.90;94.50
83283;DHT22;73190;50.780;5.658;2024-02-04T00:54:10;10.90;94.60
83283;DHT22;73190;50.780;5.658;2024-02-04T00:56:37;10.80;94.90
83283;DHT22;73190;50.780;5.658;2024-02-04T00:59:05;10.80;94.90
83283;DHT22;73190;50.780;5.658;2024-02-04T01:01:33;10.80;95.20
83283;DHT22;73190;50.780;5.658;2024-02-04T01:04:01;10.80;95.10
83283;DHT22;73190;50.780;5.658;2024-02-04T01:06:28;11.00;94.50
83283;DHT22;73190;50.780;5.658;2024-02-04T01:08:57;11.00;94.60
83283;DHT22;73190;50.780;5.658;2024-02-04T01:11:24;11.00;94.70
83283;DHT22;73190;50.780;5.658;2024-02-04T01:13:52;11.00;94.70
83283;DHT22;73190;50.780;5.658;2024-02-04T01:16:19;11.00;94.50
83283;DHT22;73190;50.780;5.658;2024-02-04T01:18:47;11.10;94.50
83283;DHT22;73190;50.780;5.658;2024-02-04T01:21:15;11.20;94.20
83283;DHT22;73190;50.780;5.658;2024-02-04T01:23:42;11.10;94.30
83283;DHT22;73190;50.780;5.658;2024-02-04T01:26:09;10.90;94.80
83283;DHT22;73190;50.780;5.658;2024-02-04T01:28:37;10.90;95.00
83283;DHT22;73190;50.780;5.658;2024-02-04T01:31:05;10.80;95.20
83283;DHT22;73190;50.780;5.658;2024-02-04T01:33:32;10.90;95.00
83283;DHT22;73190;50.780;5.658;2024-02-04T01:36:02;10.80;95.30
83283;DHT22;73190;50.780;5.658;2024-02-04T01:38:29;10.80;95.40
83283;DHT22;73190;50.780;5.658;2024-02-04T01:40:57;11.00;95.00
83283;DHT22;73190;50.780;5.658;2024-02-04T01:43:26;11.00;94.90
83283;DHT22;73190;50.780;5.658;2024-02-04T01:45:53;11.10;94.60
83283;DHT22;73190;50.780;5.658;2024-02-04T01:48:22;11.20;94.20
83283;DHT22;73190;50.780;5.658;2024-02-04T01:50:54;11.10;94.40
83283;DHT22;73190;50.780;5.658;2024-02-04T01:53:23;11.10;94.70
83283;DHT22;73190;50.780;5.658;2024-02-04T01:55:51;11.10;94.80
83283;DHT22;73190;50.780;5.658;2024-02-04T01:58:19;11.10;94.90
83283;DHT22;73190;50.780;5.658;2024-02-04T02:00:47;11.10;94.70
83283;DHT22;73190;50.780;5.658;2024-02-04T02:03:16;11.00;94.80
83283;DHT22;73190;50.780;5.658;2024-02-04T02:05:45;11.00;95.00
83283;DHT22;73190;50.780;5.658;2024-02-04T02:08:13;11.00;95.00
83283;DHT22;73190;50.780;5.658;2024-02-04T02:10:40;11.00;95.00
83283;DHT22;73190;50.780;5.658;2024-02-04T02:13:22;11.00;94.90
83283;DHT22;73190;50.780;5.658;2024-02-04T02:15:58;11.00;95.00
83283;DHT22;73190;50.780;5.658;2024-02-04T02:26:53;10.90;95.50
83283;DHT22;73190;50.780;5.658;2024-02-04T02:29:23;10.80;95.60
83283;DHT22;73190;50.780;5.658;2024-02-04T02:31:51;10.80;95.50
83283;DHT22;73190;50.780;5.658;2024-02-04T02:34:18;11.00;95.40
83283;DHT22;73190;50.780;5.658;2024-02-04T02:36:53;11.00;95.00
83283;DHT22;73190;50.780;5.658;2024-02-04T02:39:22;11.20;94.70
83283;DHT22;73190;50.780;5.658;2024-02-04T02:41:51;11.20;94.70
83283;DHT22;73190;50.780;5.658;2024-02-04T02:44:20;11.20;94.60
83283;DHT22;73190;50.780;5.658;2024-02-04T02:46:48;11.30;94.30
83283;DHT22;73190;50.780;5.658;2024-02-04T02:49:16;11.20;94.60
83283;DHT22;73190;50.780;5.658;2024-02-04T02:51:44;11.20;94.70
83283;DHT22;73190;50.780;5.658;2024-02-04T02:54:11;11.20;94.50
83283;DHT22;73190;50.780;5.658;2024-02-04T02:56:39;11.30;94.20
83283;DHT22;73190;50.780;5.658;2024-02-04T02:59:06;11.10;94.90
83283;DHT22;73190;50.780;5.658;2024-02-04T03:01:38;11.00;95.00
83283;DHT22;73190;50.780;5.658;2024-02-04T03:04:03;11.10;94.80
83283;DHT22;73190;50.780;5.658;2024-02-04T03:06:31;11.00;94.80
83283;DHT22;73190;50.780;5.658;2024-02-04T03:08:59;11.00;95.30
83283;DHT22;73190;50.780;5.658;2024-02-04T03:11:26;11.00;95.20
83283;DHT22;73190;50.780;5.658;2024-02-04T03:13:54;11.10;94.70
83283;DHT22;73190;50.780;5.658;2024-02-04T03:16:22;11.20;94.50
83283;DHT22;73190;50.780;5.658;2024-02-04T03:18:51;11.20;94.50
83283;DHT22;73190;50.780;5.658;2024-02-04T03:21:19;11.30;94.40
83283;DHT22;73190;50.780;5.658;2024-02-04T03:23:46;11.30;94.40
83283;DHT22;73190;50.780;5.658;2024-02-04T03:26:18;11.10;94.60
83283;DHT22;73190;50.780;5.658;2024-02-04T03:28:46;11.10;94.90
83283;DHT22;73190;50.780;5.658;2024-02-04T03:31:21;11.20;94.60
83283;DHT22;73190;50.780;5.658;2024-02-04T03:33:49;11.10;94.70
83283;DHT22;73190;50.780;5.658;2024-02-04T03:36:19;11.00;94.80
83283;DHT22;73190;50.780;5.658;2024-02-04T03:38:47;11.10;94.70
83283;DHT22;73190;50.780;5.658;2024-02-04T03:41:14;11.20;94.60
83283;DHT22;73190;50.780;5.658;2024-02-04T03:43:42;11.30;94.30
83283;DHT22;73190;50.780;5.658;2024-02-04T03:46:14;11.30;94.10
83283;DHT22;73190;50.780;5.658;2024-02-04T03:48:42;11.30;94.10
83283;DHT22;73190;50.780;5.658;2024-02-04T03:51:17;11.20;94.30
83283;DHT22;73190;50.780;5.658;2024-02-04T03:53:46;11.20;94.60
83283;DHT22;73190;50.780;5.658;2024-02-04T03:56:14;11.10;94.80
83283;DHT22;73190;50.780;5.658;2024-02-04T03:58:42;11.00;95.00
83283;DHT22;73190;50.780;5.658;2024-02-04T04:01:12;10.90;95.40
83283;DHT22;73190;50.780;5.658;2024-02-04T04:03:45;10.80;95.50
83283;DHT22;73190;50.780;5.658;2024-02-04T04:06:12;11.00;95.10
83283;DHT22;73190;50.780;5.658;2024-02-04T04:08:40;11.20;94.70
83283;DHT22;73190;50.780;5.658;2024-02-04T04:11:09;11.10;94.50
83283;DHT22;73190;50.780;5.658;2024-02-04T04:13:37;11.10;94.60
83283;DHT22;73190;50.780;5.658;2024-02-04T04:16:05;11.10;94.60
83283;DHT22;73190;50.780;5.658;2024-02-04T04:18:33;11.10;94.80
83283;DHT22;73190;50.780;5.658;2024-02-04T04:21:00;11.30;94.40
83283;DHT22;73190;50.780;5.658;2024-02-04T04:23:28;11.10;94.70
83283;DHT22;73190;50.780;5.658;2024-02-04T04:25:56;11.30;94.30
83283;DHT22;73190;50.780;5.658;2024-02-04T04:28:23;11.20;94.50
83283;DHT22;73190;50.780;5.658;2024-02-04T04:30:51;11.20;94.50
83283;DHT22;73190;50.780;5.658;2024-02-04T04:33:19;11.30;94.20
83283;DHT22;73190;50.780;5.658;2024-02-04T04:35:46;11.30;94.30
83283;DHT22;73190;50.780;5.658;2024-02-04T04:38:14;11.20;94.40
83283;DHT22;73190;50.780;5.658;2024-02-04T04:40:41;11.30;94.20
83283;DHT22;73190;50.780;5.658;2024-02-04T04:43:09;11.20;94.50
83283;DHT22;73190;50.780;5.658;2024-02-04T04:45:36;11.30;94.20
83283;DHT22;73190;50.780;5.658;2024-02-04T04:48:05;11.30;94.20
83283;DHT22;73190;50.780;5.658;2024-02-04T04:50:34;11.20;94.50
83283;DHT22;73190;50.780;5.658;2024-02-04T04:53:02;11.30;94.50
83283;DHT22;73190;50.780;5.658;2024-02-04T04:55:30;11.30;94.40
83283;DHT22;73190;50.780;5.658;2024-02-04T04:57:58;11.40;94.10
83283;DHT22;73190;50.780;5.658;2024-02-04T05:00:25;11.20;94.40
83283;DHT22;73190;50.780;5.658;2024-02-04T05:02:53;11.20;94.50
83283;DHT22;73190;50.780;5.658;2024-02-04T05:05:20;11.30;94.60
83283;DHT22;73190;50.780;5.658;2024-02-04T05:07:48;11.30;94.10
83283;DHT22;73190;50.780;5.658;2024-02-04T05:10:15;11.50;93.90
83283;DHT22;73190;50.780;5.658;2024-02-04T05:12:43;11.50;93.90
83283;DHT22;73190;50.780;5.658;2024-02-04T05:15:10;11.50;93.80
83283;DHT22;73190;50.780;5.658;2024-02-04T05:17:38;11.30;94.30
83283;DHT22;73190;50.780;5.658;2024-02-04T05:20:06;11.30;94.40
83283;DHT22;73190;50.780;5.658;2024-02-04T05:22:34;11.30;94.40
83283;DHT22;73190;50.780;5.658;2024-02-04T05:25:01;11.30;94.30
83283;DHT22;73190;50.780;5.658;2024-02-04T05:27:31;11.40;94.10
83283;DHT22;73190;50.780;5.658;2024-02-04T05:29:58;11.50;93.80
83283;DHT22;73190;50.780;5.658;2024-02-04T05:32:26;11.30;94.20
83283;DHT22;73190;50.780;5.658;2024-02-04T05:34:54;11.10;94.80
83283;DHT22;73190;50.780;5.658;2024-02-04T05:37:21;11.10;94.70
83283;DHT22;73190;50.780;5.658;2024-02-04T05:39:49;11.20;94.60
83283;DHT22;73190;50.780;5.658;2024-02-04T05:42:16;11.20;94.50
83283;DHT22;73190;50.780;5.658;2024-02-04T05:44:44;11.10;94.70
83283;DHT22;73190;50.780;5.658;2024-02-04T05:47:11;11.20;94.50
83283;DHT22;73190;50.780;5.658;2024-02-04T05:49:40;11.10;94.80
83283;DHT22;73190;50.780;5.658;2024-02-04T05:52:08;11.10;94.80
83283;DHT22;73190;50.780;5.658;2024-02-04T05:54:39;11.10;94.80
83283;DHT22;73190;50.780;5.658;2024-02-04T05:57:06;11.10;95.00
83283;DHT22;73190;50.780;5.658;2024-02-04T05:59:34;11.20;94.60
83283;DHT22;73190;50.780;5.658;2024-02-04T06:02:02;11.20;94.40
83283;DHT22;73190;50.780;5.658;2024-02-04T06:04:30;11.20;94.50
83283;DHT22;73190;50.780;5.658;2024-02-04T06:06:58;11.30;94.20
83283;DHT22;73190;50.780;5.658;2024-02-04T06:09:25;11.30;94.30
83283;DHT22;73190;50.780;5.658;2024-02-04T06:11:53;11.20;94.50
83283;DHT22;73190;50.780;5.658;2024-02-04T06:14:20;11.30;94.30
83283;DHT22;73190;50.780;5.658;2024-02-04T06:16:48;11.30;94.20
83283;DHT22;73190;50.780;5.658;2024-02-04T06:19:16;11.40;94.00
83283;DHT22;73190;50.780;5.658;2024-02-04T06:21:43;11.10;94.60
83283;DHT22;73190;50.780;5.658;2024-02-04T06:24:11;11.20;94.60
83283;DHT22;73190;50.780;5.658;2024-02-04T06:26:39;11.20;94.50
83283;DHT22;73190;50.780;5.658;2024-02-04T06:29:07;11.10;94.70
83283;DHT22;73190;50.780;5.658;2024-02-04T06:31:35;11.00;94.80
83283;DHT22;73190;50.780;5.658;2024-02-04T06:34:02;11.10;94.90
83283;DHT22;73190;50.780;5.658;2024-02-04T06:36:31;11.10;94.80
83283;DHT22;73190;50.780;5.658;2024-02-04T06:38:58;11.20;94.40
83283;DHT22;73190;50.780;5.658;2024-02-04T06:41:26;11.20;94.40
83283;DHT22;73190;50.780;5.658;2024-02-04T06:43:53;11.20;94.40
83283;DHT22;73190;50.780;5.658;2024-02-04T06:46:27;11.10;94.60
83283;DHT22;73190;50.780;5.658;2024-02-04T06:48:55;11.00;94.90
83283;DHT22;73190;50.780;5.658;2024-02-04T06:51:22;10.90;95.20
83283;DHT22;73190;50.780;5.658;2024-02-04T06:53:50;11.00;94.90
83283;DHT22;73190;50.780;5.658;2024-02-04T06:56:17;11.10;94.90
83283;DHT22;73190;50.780;5.658;2024-02-04T06:58:45;10.90;95.20
83283;DHT22;73190;50.780;5.658;2024-02-04T07:01:12;11.00;95.00
83283;DHT22;73190;50.780;5.658;2024-02-04T07:03:40;11.10;94.70
83283;DHT22;73190;50.780;5.658;2024-02-04T07:06:08;11.20;94.40
83283;DHT22;73190;50.780;5.658;2024-02-04T07:08:35;11.20;94.50
83283;DHT22;73190;50.780;5.658;2024-02-04T07:11:03;11.30;94.10
83283;DHT22;73190;50.780;5.658;2024-02-04T07:13:30;11.30;94.10
83283;DHT22;73190;50.780;5.658;2024-02-04T07:15:58;11.20;94.10
83283;DHT22;73190;50.780;5.658;2024-02-04T07:18:25;11.10;94.60
83283;DHT22;73190;50.780;5.658;2024-02-04T07:20:53;11.20;94.40
83283;DHT22;73190;50.780;5.658;2024-02-04T07:23:20;11.20;94.40
83283;DHT22;73190;50.780;5.658;2024-02-04T07:25:48;11.20;94.50
83283;DHT22;73190;50.780;5.658;2024-02-04T07:28:15;11.30;94.40
83283;DHT22;73190;50.780;5.658;2024-02-04T07:30:43;11.30;94.20
83283;DHT22;73190;50.780;5.658;2024-02-04T07:33:10;11.30;94.10
83283;DHT22;73190;50.780;5.658;2024-02-04T07:35:38;11.30;94.20
83283;DHT22;73190;50.780;5.658;2024-02-04T07:38:06;11.40;94.00
83283;DHT22;73190;50.780;5.658;2024-02-04T07:40:33;11.40;94.00
83283;DHT22;73190;50.780;5.658;2024-02-04T07:43:01;11.30;94.00
83283;DHT22;73190;50.780;5.658;2024-02-04T07:45:28;11.40;94.00
83283;DHT22;73190;50.780;5.658;2024-02-04T07:47:56;11.40;93.90
83283;DHT22;73190;50.780;5.658;2024-02-04T07:50:24;11.40;94.00
83283;DHT22;73190;50.780;5.658;2024-02-04T07:52:52;11.10;94.70
83283;DHT22;73190;50.780;5.658;2024-02-04T07:55:19;11.10;94.90
83283;DHT22;73190;50.780;5.658;2024-02-04T07:57:47;11.30;94.50
83283;DHT22;73190;50.780;5.658;2024-02-04T08:00:14;11.20;94.50
83283;DHT22;73190;50.780;5.658;2024-02-04T08:02:44;11.20;94.60
83283;DHT22;73190;50.780;5.658;2024-02-04T08:05:12;11.10;94.90
83283;DHT22;73190;50.780;5.658;2024-02-04T08:07:39;11.00;94.90
83283;DHT22;73190;50.780;5.658;2024-02-04T08:10:08;11.10;95.10
83283;DHT22;73190;50.780;5.658;2024-02-04T08:12:35;11.20;94.90
83283;DHT22;73190;50.780;5.658;2024-02-04T08:15:03;11.10;95.00
83283;DHT22;73190;50.780;5.658;2024-02-04T08:17:31;11.20;94.70
83283;DHT22;73190;50.780;5.658;2024-02-04T08:20:00;11.10;95.00
83283;DHT22;73190;50.780;5.658;2024-02-04T08:22:28;11.10;94.80
83283;DHT22;73190;50.780;5.658;2024-02-04T08:24:56;11.10;94.80
83283;DHT22;73190;50.780;5.658;2024-02-04T08:27:23;11.10;95.00
83283;DHT22;73190;50.780;5.658;2024-02-04T08:29:52;11.10;95.10
83283;DHT22;73190;50.780;5.658;2024-02-04T08:32:19;11.10;95.00
83283;DHT22;73190;50.780;5.658;2024-02-04T08:34:47;11.30;94.60
83283;DHT22;73190;50.780;5.658;2024-02-04T08:37:16;11.30;94.30
83283;DHT22;73190;50.780;5.658;2024-02-04T08:39:44;11.40;94.20
83283;DHT22;73190;50.780;5.658;2024-02-04T08:42:11;11.30;94.50
83283;DHT22;73190;50.780;5.658;2024-02-04T08:44:39;11.30;94.60
83283;DHT22;73190;50.780;5.658;2024-02-04T08:47:07;11.30;94.40
83283;DHT22;73190;50.780;5.658;2024-02-04T08:49:39;11.40;94.30
83283;DHT22;73190;50.780;5.658;2024-02-04T08:52:07;11.30;94.30
83283;DHT22;73190;50.780;5.658;2024-02-04T08:54:34;11.30;94.40
83283;DHT22;73190;50.780;5.658;2024-02-04T08:57:02;11.40;94.30
83283;DHT22;73190;50.780;5.658;2024-02-04T08:59:29;11.40;94.30
83283;DHT22;73190;50.780;5.658;2024-02-04T09:01:57;11.50;94.00
83283;DHT22;73190;50.780;5.658;2024-02-04T09:04:25;11.40;94.30
83283;DHT22;73190;50.780;5.658;2024-02-04T09:06:52;11.50;94.00
83283;DHT22;73190;50.780;5.658;2024-02-04T09:09:20;11.60;94.00
83283;DHT22;73190;50.780;5.658;2024-02-04T09:11:49;11.60;93.80
83283;DHT22;73190;50.780;5.658;2024-02-04T09:14:16;11.70;93.70
83283;DHT22;73190;50.780;5.658;2024-02-04T09:16:44;11.60;93.70
83283;DHT22;73190;50.780;5.658;2024-02-04T09:19:11;11.70;93.70
83283;DHT22;73190;50.780;5.658;2024-02-04T09:21:39;11.50;93.90
83283;DHT22;73190;50.780;5.658;2024-02-04T09:24:07;11.50;94.20
83283;DHT22;73190;50.780;5.658;2024-02-04T09:26:35;11.30;94.80
83283;DHT22;73190;50.780;5.658;2024-02-04T09:29:03;11.30;94.80
83283;DHT22;73190;50.780;5.658;2024-02-04T09:31:30;11.30;94.70
83283;DHT22;73190;50.780;5.658;2024-02-04T09:33:58;11.50;94.20
83283;DHT22;73190;50.780;5.658;2024-02-04T09:36:25;11.50;94.20
83283;DHT22;73190;50.780;5.658;2024-02-04T09:38:53;11.50;94.40
83283;DHT22;73190;50.780;5.658;2024-02-04T09:41:21;11.60;94.10
83283;DHT22;73190;50.780;5.658;2024-02-04T09:43:51;11.40;94.50
83283;DHT22;73190;50.780;5.658;2024-02-04T09:46:19;11.50;94.40
83283;DHT22;73190;50.780;5.658;2024-02-04T09:48:47;11.60;94.10
83283;DHT22;73190;50.780;5.658;2024-02-04T09:51:16;11.80;93.60
83283;DHT22;73190;50.780;5.658;2024-02-04T09:53:45;11.70;93.50
83283;DHT22;73190;50.780;5.658;2024-02-04T09:56:12;11.70;93.60
83283;DHT22;73190;50.780;5.658;2024-02-04T09:58:41;11.70;93.70
83283;DHT22;73190;50.780;5.658;2024-02-04T10:01:10;11.60;93.60
83283;DHT22;73190;50.780;5.658;2024-02-04T10:03:39;11.70;93.70
83283;DHT22;73190;50.780;5.658;2024-02-04T10:06:08;11.50;93.90
83283;DHT22;73190;50.780;5.658;2024-02-04T10:08:37;11.60;94.10
83283;DHT22;73190;50.780;5.658;2024-02-04T10:11:05;11.70;93.70
83283;DHT22;73190;50.780;5.658;2024-02-04T10:13:46;11.80;93.30
83283;DHT22;73190;50.780;5.658;2024-02-04T10:16:15;11.90;93.00
83283;DHT22;73190;50.780;5.658;2024-02-04T10:18:45;12.00;92.60
83283;DHT22;73190;50.780;5.658;2024-02-04T10:21:21;11.90;93.00
83283;DHT22;73190;50.780;5.658;2024-02-04T10:23:50;11.90;92.80
83283;DHT22;73190;50.780;5.658;2024-02-04T10:26:18;12.00;92.30
83283;DHT22;73190;50.780;5.658;2024-02-04T10:28:49;12.00;92.40
83283;DHT22;73190;50.780;5.658;2024-02-04T10:31:17;12.00;92.50
83283;DHT22;73190;50.780;5.658;2024-02-04T10:33:44;12.00;92.50
83283;DHT22;73190;50.780;5.658;2024-02-04T10:36:12;12.10;92.20
83283;DHT22;73190;50.780;5.658;2024-02-04T10:38:39;11.90;92.60
83283;DHT22;73190;50.780;5.658;2024-02-04T10:41:07;11.80;92.90
83283;DHT22;73190;50.780;5.658;2024-02-04T10:43:35;11.70;93.20
83283;DHT22;73190;50.780;5.658;2024-02-04T10:46:22;11.80;93.00
83283;DHT22;73190;50.780;5.658;2024-02-04T10:48:55;11.90;92.70
83283;DHT22;73190;50.780;5.658;2024-02-04T10:51:17;11.90;92.90
83283;DHT22;73190;50.780;5.658;2024-02-04T10:53:46;11.80;92.90
83283;DHT22;73190;50.780;5.658;2024-02-04T10:58:56;11.70;93.70
83283;DHT22;73190;50.780;5.658;2024-02-04T11:01:26;11.70;93.70
83283;DHT22;73190;50.780;5.658;2024-02-04T11:03:54;11.80;93.50
83283;DHT22;73190;50.780;5.658;2024-02-04T11:06:24;12.10;92.70
83283;DHT22;73190;50.780;5.658;2024-02-04T11:08:54;12.10;92.40
83283;DHT22;73190;50.780;5.658;2024-02-04T11:11:24;11.90;93.00
83283;DHT22;73190;50.780;5.658;2024-02-04T11:13:59;11.80;93.30
83283;DHT22;73190;50.780;5.658;2024-02-04T11:22:12;11.70;93.20
83283;DHT22;73190;50.780;5.658;2024-02-04T11:27:33;11.70;93.40
83283;DHT22;73190;50.780;5.658;2024-02-04T11:30:01;11.70;93.30
83283;DHT22;73190;50.780;5.658;2024-02-04T11:32:30;11.40;94.00
83283;DHT22;73190;50.780;5.658;2024-02-04T11:34:58;11.50;94.10
83283;DHT22;73190;50.780;5.658;2024-02-04T11:37:27;11.70;93.60
83283;DHT22;73190;50.780;5.658;2024-02-04T11:39:56;11.80;93.00
83283;DHT22;73190;50.780;5.658;2024-02-04T11:42:25;12.00;92.60
83283;DHT22;73190;50.780;5.658;2024-02-04T11:45:15;11.80;93.00
83283;DHT22;73190;50.780;5.658;2024-02-04T11:47:25;11.70;93.20
83283;DHT22;73190;50.780;5.658;2024-02-04T11:49:59;11.70;93.40
83283;DHT22;73190;50.780;5.658;2024-02-04T11:52:29;11.60;93.50
83283;DHT22;73190;50.780;5.658;2024-02-04T11:54:57;11.50;94.00
83283;DHT22;73190;50.780;5.658;2024-02-04T11:57:26;11.40;94.10
83283;DHT22;73190;50.780;5.658;2024-02-04T11:59:54;11.50;93.60
83283;DHT22;73190;50.780;5.658;2024-02-04T12:02:25;11.70;93.30
83283;DHT22;73190;50.780;5.658;2024-02-04T12:04:52;11.80;93.10
83283;DHT22;73190;50.780;5.658;2024-02-04T12:07:21;11.70;93.20
83283;DHT22;73190;50.780;5.658;2024-02-04T12:09:49;11.70;92.90
83283;DHT22;73190;50.780;5.658;2024-02-04T12:12:17;11.60;93.40
83283;DHT22;73190;50.780;5.658;2024-02-04T12:14:45;11.60;93.60
83283;DHT22;73190;50.780;5.658;2024-02-04T12:17:15;11.50;93.70
83283;DHT22;73190;50.780;5.658;2024-02-04T12:19:42;11.70;93.30
83283;DHT22;73190;50.780;5.658;2024-02-04T12:22:10;11.60;93.60
83283;DHT22;73190;50.780;5.658;2024-02-04T12:24:38;11.60;93.50
83283;DHT22;73190;50.780;5.658;2024-02-04T12:27:05;11.60;93.80
83283;DHT22;73190;50.780;5.658;2024-02-04T12:29:33;11.70;93.40
83283;DHT22;73190;50.780;5.658;2024-02-04T12:32:03;11.60;93.50
83283;DHT22;73190;50.780;5.658;2024-02-04T12:34:30;11.50;94.10
83283;DHT22;73190;50.780;5.658;2024-02-04T12:37:00;11.60;93.80
83283;DHT22;73190;50.780;5.658;2024-02-04T12:39:29;11.70;93.90
83283;DHT22;73190;50.780;5.658;2024-02-04T12:41:58;11.70;93.80
83283;DHT22;73190;50.780;5.658;2024-02-04T12:44:26;11.90;93.40
83283;DHT22;73190;50.780;5.658;2024-02-04T12:46:54;11.70;93.70
83283;DHT22;73190;50.780;5.658;2024-02-04T12:49:21;11.80;93.70
83283;DHT22;73190;50.780;5.658;2024-02-04T12:51:50;11.80;93.50
83283;DHT22;73190;50.780;5.658;2024-02-04T12:54:22;11.80;93.70
83283;DHT22;73190;50.780;5.658;2024-02-04T12:56:52;11.90;93.60
83283;DHT22;73190;50.780;5.658;2024-02-04T12:59:33;11.70;93.60
83283;DHT22;73190;50.780;5.658;2024-02-04T13:02:06;11.70;94.10
83283;DHT22;73190;50.780;5.658;2024-02-04T13:04:39;11.50;94.60
83283;DHT22;73190;50.780;5.658;2024-02-04T13:07:16;11.50;94.50
83283;DHT22;73190;50.780;5.658;2024-02-04T13:09:41;11.50;94.50
83283;DHT22;73190;50.780;5.658;2024-02-04T13:12:09;11.50;94.70
83283;DHT22;73190;50.780;5.658;2024-02-04T13:14:37;11.60;94.60
83283;DHT22;73190;50.780;5.658;2024-02-04T13:17:05;11.60;94.30
83283;DHT22;73190;50.780;5.658;2024-02-04T13:19:37;11.70;94.00
83283;DHT22;73190;50.780;5.658;2024-02-04T13:22:06;11.80;93.90
83283;DHT22;73190;50.780;5.658;2024-02-04T13:24:35;11.60;94.40
83283;DHT22;73190;50.780;5.658;2024-02-04T13:27:02;11.70;94.40
83283;DHT22;73190;50.780;5.658;2024-02-04T13:29:32;11.80;94.20
83283;DHT22;73190;50.780;5.658;2024-02-04T13:31:59;11.80;94.20
83283;DHT22;73190;50.780;5.658;2024-02-04T13:34:27;11.80;94.30
83283;DHT22;73190;50.780;5.658;2024-02-04T13:36:55;11.70;94.50
83283;DHT22;73190;50.780;5.658;2024-02-04T13:39:22;11.80;94.40
83283;DHT22;73190;50.780;5.658;2024-02-04T13:41:50;11.80;94.40
83283;DHT22;73190;50.780;5.658;2024-02-04T13:44:18;11.90;94.20
83283;DHT22;73190;50.780;5.658;2024-02-04T13:46:45;11.80;94.30
83283;DHT22;73190;50.780;5.658;2024-02-04T13:49:13;11.70;94.50
83283;DHT22;73190;50.780;5.658;2024-02-04T13:51:40;11.80;94.40
83283;DHT22;73190;50.780;5.658;2024-02-04T13:54:08;11.90;94.40
83283;DHT22;73190;50.780;5.658;2024-02-04T13:56:37;11.90;93.90
83283;DHT22;73190;50.780;5.658;2024-02-04T13:59:05;12.00;93.80
83283;DHT22;73190;50.780;5.658;2024-02-04T14:01:33;11.90;94.00
83283;DHT22;73190;50.780;5.658;2024-02-04T14:04:01;11.90;93.90
83283;DHT22;73190;50.780;5.658;2024-02-04T14:06:28;11.90;93.80
83283;DHT22;73190;50.780;5.658;2024-02-04T14:08:56;12.00;93.50
83283;DHT22;73190;50.780;5.658;2024-02-04T14:11:23;12.00;93.80
83283;DHT22;73190;50.780;5.658;2024-02-04T14:13:52;12.10;93.20
83283;DHT22;73190;50.780;5.658;2024-02-04T14:16:19;12.20;92.90
83283;DHT22;73190;50.780;5.658;2024-02-04T14:18:47;12.20;93.00
83283;DHT22;73190;50.780;5.658;2024-02-04T14:21:15;12.10;93.10
83283;DHT22;73190;50.780;5.658;2024-02-04T14:23:42;12.00;93.50
83283;DHT22;73190;50.780;5.658;2024-02-04T14:26:18;12.10;93.40
83283;DHT22;73190;50.780;5.658;2024-02-04T14:28:46;12.10;93.10
83283;DHT22;73190;50.780;5.658;2024-02-04T14:31:13;12.10;93.30
83283;DHT22;73190;50.780;5.658;2024-02-04T14:33:42;12.20;92.90
83283;DHT22;73190;50.780;5.658;2024-02-04T14:36:10;12.20;93.00
83283;DHT22;73190;50.780;5.658;2024-02-04T14:38:38;12.30;92.90
83283;DHT22;73190;50.780;5.658;2024-02-04T14:41:05;12.30;93.10
83283;DHT22;73190;50.780;5.658;2024-02-04T14:43:33;12.20;93.10
83283;DHT22;73190;50.780;5.658;2024-02-04T14:46:01;12.20;93.20
83283;DHT22;73190;50.780;5.658;2024-02-04T14:48:29;12.20;93.10
83283;DHT22;73190;50.780;5.658;2024-02-04T14:50:57;12.10;93.30
83283;DHT22;73190;50.780;5.658;2024-02-04T14:53:25;12.20;93.10
83283;DHT22;73190;50.780;5.658;2024-02-04T14:55:53;12.20;93.20
83283;DHT22;73190;50.780;5.658;2024-02-04T14:58:22;12.10;93.40
83283;DHT22;73190;50.780;5.658;2024-02-04T15:00:50;12.20;93.10
83283;DHT22;73190;50.780;5.658;2024-02-04T15:03:18;12.20;93.10
83283;DHT22;73190;50.780;5.658;2024-02-04T15:05:45;12.10;93.10
83283;DHT22;73190;50.780;5.658;2024-02-04T15:08:12;12.00;93.50
83283;DHT22;73190;50.780;5.658;2024-02-04T15:10:40;12.00;93.30
83283;DHT22;73190;50.780;5.658;2024-02-04T15:13:08;12.10;92.90
83283;DHT22;73190;50.780;5.658;2024-02-04T15:15:36;12.10;92.80
83283;DHT22;73190;50.780;5.658;2024-02-04T15:18:05;12.20;92.60
83283;DHT22;73190;50.780;5.658;2024-02-04T15:20:33;12.10;92.60
83283;DHT22;73190;50.780;5.658;2024-02-04T15:23:01;12.00;93.00
83283;DHT22;73190;50.780;5.658;2024-02-04T15:25:29;12.00;92.90
83283;DHT22;73190;50.780;5.658;2024-02-04T15:27:57;12.00;92.80
83283;DHT22;73190;50.780;5.658;2024-02-04T15:30:25;12.00;93.10
83283;DHT22;73190;50.780;5.658;2024-02-04T15:32:53;11.90;93.10
83283;DHT22;73190;50.780;5.658;2024-02-04T15:35:21;11.90;93.10
83283;DHT22;73190;50.780;5.658;2024-02-04T15:37:49;12.00;92.80
83283;DHT22;73190;50.780;5.658;2024-02-04T15:40:16;12.10;92.80
83283;DHT22;73190;50.780;5.658;2024-02-04T15:42:45;12.20;92.40
83283;DHT22;73190;50.780;5.658;2024-02-04T15:45:13;12.20;92.30
83283;DHT22;73190;50.780;5.658;2024-02-04T15:47:52;12.10;92.40
83283;DHT22;73190;50.780;5.658;2024-02-04T15:50:13;12.10;92.40
83283;DHT22;73190;50.780;5.658;2024-02-04T15:52:41;12.10;92.50
83283;DHT22;73190;50.780;5.658;2024-02-04T15:55:10;12.10;92.20
83283;DHT22;73190;50.780;5.658;2024-02-04T15:57:39;12.20;92.20